TimeEST,TemperatureF,Dew PointF,Humidity,Sea Level PressureIn,VisibilityMPH,Wind Direction,Wind SpeedMPH,Gust SpeedMPH,PrecipitationIn,Events,Conditions,WindDirDegrees,DateUTC
12:14 AM,42.8,39.2,87,29.77,10.0,South,5.8,-,0.00,,Mostly Cloudy,190,2011-11-29 05:14:00
12:54 AM,42.1,37.9,85,29.74,10.0,South,11.5,-,0.00,,Overcast,190,2011-11-29 05:54:00
1:54 AM,39.9,36.0,86,29.74,10.0,SSE,5.8,-,N/A,,Overcast,150,2011-11-29 06:54:00
2:54 AM,39.9,35.1,83,29.73,10.0,South,10.4,-,N/A,,Overcast,180,2011-11-29 07:54:00
3:54 AM,39.0,33.1,79,29.73,10.0,SSW,8.1,-,N/A,,Overcast,200,2011-11-29 08:54:00
4:54 AM,37.0,30.9,79,29.74,10.0,South,11.5,-,N/A,,Mostly Cloudy,180,2011-11-29 09:54:00
5:16 AM,37.4,30.2,75,29.75,10.0,South,13.8,-,N/A,,Mostly Cloudy,180,2011-11-29 10:16:00
5:54 AM,37.0,28.9,73,29.75,10.0,SSE,9.2,18.4,N/A,,Overcast,150,2011-11-29 10:54:00
6:54 AM,35.1,28.9,78,29.76,10.0,South,8.1,-,N/A,,Mostly Cloudy,190,2011-11-29 11:54:00
7:54 AM,35.1,30.0,82,29.78,10.0,SSE,8.1,-,N/A,,Mostly Cloudy,160,2011-11-29 12:54:00
8:54 AM,37.0,30.0,76,29.80,10.0,SSE,5.8,-,N/A,,Overcast,150,2011-11-29 13:54:00
9:03 AM,37.4,30.2,75,29.80,10.0,South,8.1,-,N/A,,Overcast,180,2011-11-29 14:03:00
9:24 AM,37.4,32.0,81,29.78,10.0,South,10.4,-,N/A,,Overcast,170,2011-11-29 14:24:00
9:54 AM,37.0,30.9,79,29.78,10.0,SSW,9.2,-,N/A,,Partly Cloudy,210,2011-11-29 14:54:00
10:54 AM,39.0,30.9,73,29.76,10.0,SSE,9.2,-,N/A,,Partly Cloudy,160,2011-11-29 15:54:00
11:54 AM,39.0,30.9,73,29.75,10.0,South,10.4,-,N/A,,Overcast,190,2011-11-29 16:54:00
12:07 PM,37.4,33.8,87,29.75,10.0,South,11.5,-,0.00,Rain,Light Rain,190,2011-11-29 17:07:00
12:22 PM,37.4,33.8,87,29.74,10.0,South,9.2,-,0.00,Rain,Light Rain,190,2011-11-29 17:22:00
12:35 PM,37.4,33.8,87,29.74,10.0,South,9.2,-,0.00,,Overcast,190,2011-11-29 17:35:00
12:44 PM,37.4,32.0,81,29.73,10.0,South,9.2,-,0.00,,Overcast,190,2011-11-29 17:44:00
12:54 PM,37.9,32.0,79,29.73,10.0,South,10.4,-,0.00,,Overcast,170,2011-11-29 17:54:00
1:06 PM,37.4,32.0,81,29.72,10.0,South,11.5,-,N/A,,Overcast,180,2011-11-29 18:06:00
1:54 PM,36.0,34.0,93,29.73,9.0,South,8.1,-,0.00,Rain,Light Rain,170,2011-11-29 18:54:00
2:33 PM,37.4,32.0,81,29.73,10.0,South,10.4,-,0.00,,Overcast,190,2011-11-29 19:33:00
2:54 PM,37.0,30.9,79,29.74,8.0,SSW,10.4,-,0.00,Snow,Snow,210,2011-11-29 19:54:00
3:54 PM,37.9,32.0,79,29.75,10.0,South,12.7,-,0.00,,Overcast,190,2011-11-29 20:54:00
4:19 PM,37.4,30.2,75,29.75,10.0,SSW,11.5,-,N/A,,Overcast,200,2011-11-29 21:19:00
4:54 PM,37.0,32.0,82,29.78,10.0,SSW,8.1,-,N/A,,Overcast,200,2011-11-29 21:54:00
5:54 PM,35.6,32.0,87,29.79,10.0,SSW,4.6,-,N/A,,Overcast,210,2011-11-29 22:54:00
6:39 PM,35.6,32.0,87,29.81,10.0,SSW,4.6,-,0.00,,Overcast,200,2011-11-29 23:39:00
6:54 PM,36.0,32.0,86,29.83,10.0,SSW,5.8,-,0.00,,Overcast,210,2011-11-29 23:54:00
7:54 PM,36.0,32.0,86,29.84,10.0,Calm,Calm,-,N/A,,Overcast,0,2011-11-30 00:54:00
8:54 PM,35.1,30.9,85,29.84,10.0,NNW,4.6,-,N/A,,Clear,340,2011-11-30 01:54:00
9:38 PM,35.6,32.0,87,29.82,10.0,Variable,4.6,-,N/A,,Overcast,0,2011-11-30 02:38:00
9:47 PM,35.6,30.2,81,29.81,10.0,Calm,Calm,-,N/A,,Mostly Cloudy,0,2011-11-30 02:47:00
9:54 PM,34.0,30.9,89,29.83,10.0,Calm,Calm,-,N/A,,Mostly Cloudy,0,2011-11-30 02:54:00
10:54 PM,33.8,30.2,87,29.83,10.0,NNW,9.2,-,N/A,,Overcast,340,2011-11-30 03:54:00
11:54 PM,33.1,30.9,92,29.85,10.0,NW,3.5,-,N/A,,Overcast,320,2011-11-30 04:54:00